Time;durP1;ratioP1;P1;durP2;ratioP2;P2;SDS_P1;SDS_P2;PMS_P1;PMS_P2;Temp;Humidity;BMP_temperature;BMP_pressure;BME280_temperature;BME280_humidity;BME280_pressure;Samples;Min_cycle;Max_cycle;Signal;HPM_P1;HPM_P2
2023/01/26 00:00:50;;;;;;;19.90;11.52;;;1.90;99.90;;;;;;5072520;28;20033;-67
2023/01/26 00:03:16;;;;;;;16.75;10.10;;;1.90;99.90;;;;;;5072324;28;20052;-73
2023/01/26 00:05:42;;;;;;;20.42;12.18;;;1.90;99.90;;;;;;5072375;28;20032;-67
2023/01/26 00:08:08;;;;;;;17.75;10.55;;;1.90;99.90;;;;;;5074928;28;20028;-67
2023/01/26 00:10:36;;;;;;;17.38;10.82;;;2.00;99.90;;;;;;5072020;28;20025;-67
2023/01/26 00:13:02;;;;;;;19.27;11.88;;;2.00;99.90;;;;;;5072183;28;20048;-67
2023/01/26 00:15:27;;;;;;;19.45;11.52;;;1.90;99.90;;;;;;5071890;28;20083;-67
2023/01/26 00:17:53;;;;;;;17.98;11.70;;;2.00;99.90;;;;;;5072032;28;20033;-67
2023/01/26 00:20:19;;;;;;;19.65;12.00;;;1.90;99.90;;;;;;5071579;28;20032;-67
2023/01/26 00:22:45;;;;;;;19.73;11.32;;;1.80;99.90;;;;;;5072268;28;20028;-66
2023/01/26 00:25:10;;;;;;;21.17;12.20;;;1.90;99.90;;;;;;5071980;28;20078;-66
2023/01/26 00:27:36;;;;;;;24.08;12.60;;;1.80;99.90;;;;;;5071545;28;20103;-66
2023/01/26 00:30:02;;;;;;;20.05;11.40;;;1.80;99.90;;;;;;5071771;28;20472;-66
2023/01/26 00:32:28;;;;;;;18.92;12.23;;;1.80;99.90;;;;;;5071939;28;20480;-66
2023/01/26 00:34:53;;;;;;;20.65;11.05;;;1.70;99.90;;;;;;5073897;28;20032;-66
2023/01/26 00:37:19;;;;;;;20.63;11.82;;;1.80;99.90;;;;;;5075735;28;20029;-67
2023/01/26 00:39:44;;;;;;;20.30;11.60;;;1.80;99.90;;;;;;5075799;28;20040;-66
2023/01/26 00:42:12;;;;;;;20.27;11.57;;;1.80;99.90;;;;;;5075678;28;20021;-66
2023/01/26 00:44:40;;;;;;;23.50;11.23;;;1.80;99.90;;;;;;5075203;28;20055;-66
2023/01/26 00:47:08;;;;;;;19.35;12.38;;;1.80;99.90;;;;;;5075691;28;20032;-66
2023/01/26 00:49:34;;;;;;;18.60;11.25;;;1.80;99.90;;;;;;5075187;28;20028;-66
2023/01/26 00:52:00;;;;;;;20.67;12.55;;;1.80;99.90;;;;;;5075664;28;20028;-66
2023/01/26 00:54:27;;;;;;;20.90;11.95;;;1.80;99.90;;;;;;5075137;28;20350;-66
2023/01/26 00:56:53;;;;;;;18.85;10.73;;;1.80;99.90;;;;;;5075484;28;20032;-66
2023/01/26 00:59:19;;;;;;;20.20;11.52;;;1.80;99.90;;;;;;5075329;28;20036;-66
2023/01/26 01:01:45;;;;;;;16.35;10.15;;;1.70;99.90;;;;;;5074864;28;20039;-66
2023/01/26 01:04:10;;;;;;;18.50;10.52;;;1.60;99.90;;;;;;5075345;28;20020;-67
2023/01/26 01:06:36;;;;;;;23.23;11.45;;;1.70;99.90;;;;;;5074533;28;20086;-66
2023/01/26 01:09:02;;;;;;;18.83;11.15;;;1.70;99.90;;;;;;5075331;28;20036;-66
2023/01/26 01:11:28;;;;;;;17.65;11.50;;;1.60;99.90;;;;;;5074596;28;20028;-66
2023/01/26 01:13:53;;;;;;;18.70;11.00;;;1.60;99.90;;;;;;5074961;28;20035;-66
2023/01/26 01:16:19;;;;;;;19.70;11.60;;;1.60;99.90;;;;;;5075045;28;20056;-66
2023/01/26 01:18:45;;;;;;;21.00;11.95;;;1.60;99.90;;;;;;5074661;28;20429;-66
2023/01/26 01:21:13;;;;;;;17.10;10.70;;;1.60;99.90;;;;;;5075463;28;20060;-66
2023/01/26 01:23:39;;;;;;;22.80;12.55;;;1.60;99.90;;;;;;5074188;28;20090;-66
2023/01/26 01:26:06;;;;;;;25.02;13.52;;;1.50;99.90;;;;;;5074536;28;20127;-66
2023/01/26 01:28:32;;;;;;;21.35;12.40;;;1.60;99.90;;;;;;5074137;28;20382;-66
2023/01/26 01:30:58;;;;;;;22.77;13.38;;;1.60;99.90;;;;;;5074801;28;20024;-66
2023/01/26 01:33:24;;;;;;;19.60;12.23;;;1.60;99.90;;;;;;5073077;28;20373;-67
2023/01/26 01:36:01;;;;;;;21.38;13.13;;;1.60;99.90;;;;;;5074849;28;20025;-66
2023/01/26 01:38:27;;;;;;;23.77;12.80;;;1.60;99.90;;;;;;5076201;28;20028;-66
2023/01/26 01:40:54;;;;;;;19.58;11.88;;;1.60;99.90;;;;;;5076601;28;20044;-67
2023/01/26 01:43:21;;;;;;;19.02;11.10;;;1.60;99.90;;;;;;5075075;28;20099;-66
2023/01/26 01:45:48;;;;;;;19.98;12.40;;;1.60;99.90;;;;;;5073898;28;20039;-66
2023/01/26 01:48:29;;;;;;;21.40;12.43;;;1.60;99.90;;;;;;5074558;28;20032;-66
2023/01/26 01:50:58;;;;;;;18.23;11.85;;;1.60;99.90;;;;;;5075074;28;20032;-66
2023/01/26 01:53:31;;;;;;;19.75;11.57;;;1.60;99.90;;;;;;5074063;28;20029;-69
2023/01/26 01:56:04;;;;;;;17.88;11.45;;;1.60;99.90;;;;;;5074729;28;20039;-66
2023/01/26 01:58:33;;;;;;;23.88;12.13;;;1.60;99.90;;;;;;5073986;28;20143;-66
2023/01/26 02:00:58;;;;;;;23.35;12.65;;;1.60;99.90;;;;;;5074015;28;20513;-66
2023/01/26 02:03:27;;;;;;;20.98;12.90;;;1.60;99.90;;;;;;5074284;28;20111;-66
2023/01/26 02:06:12;;;;;;;22.48;13.50;;;1.60;99.90;;;;;;5074167;28;20086;-66
2023/01/26 02:08:44;;;;;;;20.92;12.20;;;1.60;99.90;;;;;;5073927;28;20056;-66
2023/01/26 02:11:13;;;;;;;23.98;14.43;;;1.60;99.90;;;;;;5074255;28;20103;-66
2023/01/26 02:13:41;;;;;;;19.67;12.35;;;1.70;99.90;;;;;;5085712;28;20106;-66
2023/01/26 02:16:07;;;;;;;20.80;12.38;;;1.60;99.90;;;;;;5094273;28;20028;-66
2023/01/26 02:18:32;;;;;;;21.52;12.63;;;1.60;99.90;;;;;;5093546;28;20050;-66
2023/01/26 02:21:00;;;;;;;20.83;12.40;;;1.60;99.90;;;;;;5092794;28;20119;-66
2023/01/26 02:23:40;;;;;;;22.00;12.82;;;1.70;99.90;;;;;;5093896;28;20487;-73
2023/01/26 02:26:11;;;;;;;25.08;12.80;;;1.70;99.90;;;;;;5094164;28;20067;-66
2023/01/26 02:28:38;;;;;;;21.27;12.93;;;1.70;99.90;;;;;;5094151;28;20028;-67
2023/01/26 02:31:05;;;;;;;22.50;13.25;;;1.70;99.90;;;;;;5094017;28;20028;-66
2023/01/26 02:33:32;;;;;;;23.05;13.82;;;1.70;99.90;;;;;;5092374;28;20487;-66
2023/01/26 02:35:58;;;;;;;22.63;13.18;;;1.70;99.90;;;;;;5093894;28;20051;-66
2023/01/26 02:38:29;;;;;;;20.17;12.73;;;1.70;99.90;;;;;;5093993;28;20079;-66
2023/01/26 02:40:59;;;;;;;21.02;12.82;;;1.60;99.90;;;;;;5093285;28;20052;-66
2023/01/26 02:43:26;;;;;;;22.80;12.57;;;1.70;99.90;;;;;;5094101;28;20089;-67
2023/01/26 02:45:52;;;;;;;21.73;13.02;;;1.60;99.90;;;;;;5097768;28;20085;-66
2023/01/26 02:51:03;;;;;;;23.90;14.05;;;1.60;99.90;;;;;;5096690;28;20031;-66
2023/01/26 02:53:29;;;;;;;20.92;12.73;;;1.60;99.90;;;;;;5095587;28;20020;-68
2023/01/26 02:55:54;;;;;;;23.13;14.23;;;1.60;99.90;;;;;;5095871;28;20028;-67
2023/01/26 02:58:20;;;;;;;25.58;14.27;;;1.60;99.90;;;;;;5095298;28;20031;-65
2023/01/26 03:00:46;;;;;;;24.50;13.60;;;1.60;99.90;;;;;;5094691;28;20032;-66
2023/01/26 03:03:15;;;;;;;22.73;14.00;;;1.60;99.90;;;;;;5094522;28;20103;-66
2023/01/26 03:05:41;;;;;;;21.40;13.43;;;1.60;99.90;;;;;;5093306;28;20036;-66
2023/01/26 03:08:07;;;;;;;20.05;12.90;;;1.60;99.90;;;;;;5093314;28;20024;-66
2023/01/26 03:10:33;;;;;;;26.48;13.52;;;1.50;99.90;;;;;;5092963;28;20028;-66
2023/01/26 03:12:59;;;;;;;23.10;12.93;;;1.50;99.90;;;;;;5093230;28;20511;-66
2023/01/26 03:15:41;;;;;;;20.08;13.23;;;1.60;99.90;;;;;;5093184;28;20039;-66
2023/01/26 03:29:06;;;;;;;21.75;11.98;;;1.50;99.90;;;;;;5092885;28;20435;-66
2023/01/26 03:31:32;;;;;;;24.77;14.63;;;1.50;99.90;;;;;;5078526;28;20028;-68
2023/01/26 03:33:57;;;;;;;20.85;13.00;;;1.50;99.90;;;;;;5072767;28;20028;-66
2023/01/26 03:36:23;;;;;;;21.55;13.65;;;1.50;99.90;;;;;;5073311;28;20094;-65
2023/01/26 03:38:49;;;;;;;21.00;13.90;;;1.50;99.90;;;;;;5072197;28;20071;-66
2023/01/26 03:57:39;;;;;;;33.72;17.58;;;1.60;99.90;;;;;;5071968;28;20484;-67
2023/01/26 04:00:05;;;;;;;34.42;17.45;;;1.60;99.90;;;;;;5072517;28;20040;-67
2023/01/26 04:08:25;;;;;;;32.25;18.52;;;1.60;99.90;;;;;;5092872;28;20462;-66
2023/01/26 04:10:53;;;;;;;33.10;19.10;;;1.60;99.90;;;;;;5096372;28;20141;-66
2023/01/26 04:21:37;;;;;;;33.05;17.38;;;1.60;99.90;;;;;;5095903;28;20035;-67
2023/01/26 04:24:13;;;;;;;30.42;18.20;;;1.50;99.90;;;;;;5096224;28;20020;-66
2023/01/26 04:26:40;;;;;;;32.63;19.35;;;1.50;99.90;;;;;;5096044;28;20032;-67
2023/01/26 04:29:08;;;;;;;31.27;17.48;;;1.50;99.90;;;;;;5096452;28;20418;-66
2023/01/26 04:31:34;;;;;;;33.10;18.38;;;1.50;99.90;;;;;;5096251;28;20092;-66
2023/01/26 04:34:01;;;;;;;34.00;18.38;;;1.50;99.90;;;;;;5095792;28;20542;-66
2023/01/26 04:36:28;;;;;;;35.72;19.17;;;1.60;99.90;;;;;;5096196;28;20146;-67
2023/01/26 04:38:54;;;;;;;34.33;18.42;;;1.60;99.90;;;;;;5095647;28;20031;-65
2023/01/26 04:41:19;;;;;;;37.75;19.77;;;1.60;99.90;;;;;;5095696;28;20123;-66
2023/01/26 04:43:45;;;;;;;38.47;19.30;;;1.60;99.90;;;;;;5098522;28;20113;-66
2023/01/26 04:46:11;;;;;;;38.67;20.05;;;1.60;99.90;;;;;;5098359;28;20119;-66
2023/01/26 04:48:37;;;;;;;37.63;19.23;;;1.60;99.90;;;;;;5096904;28;20031;-70
2023/01/26 04:51:06;;;;;;;36.15;18.38;;;1.60;99.90;;;;;;5096011;28;20518;-67
2023/01/26 04:53:33;;;;;;;36.90;19.17;;;1.60;99.90;;;;;;5095846;28;20107;-67
2023/01/26 04:55:59;;;;;;;41.95;18.80;;;1.60;99.90;;;;;;5095446;28;20104;-66
2023/01/26 04:58:25;;;;;;;40.63;20.15;;;1.60;99.90;;;;;;5095669;28;20178;-66
2023/01/26 05:00:52;;;;;;;39.85;20.13;;;1.60;99.90;;;;;;5095278;28;20066;-66
2023/01/26 05:03:18;;;;;;;35.90;18.63;;;1.60;99.90;;;;;;5095430;28;20032;-66
2023/01/26 05:05:44;;;;;;;34.58;17.17;;;1.60;99.90;;;;;;5095074;28;20077;-66
2023/01/26 05:08:10;;;;;;;34.97;17.80;;;1.60;99.90;;;;;;5095183;28;20424;-66
2023/01/26 05:10:35;;;;;;;32.05;17.45;;;1.60;99.90;;;;;;5095475;28;20028;-67
2023/01/26 05:13:01;;;;;;;37.90;19.85;;;1.60;99.90;;;;;;5095255;28;20415;-67
2023/01/26 05:15:26;;;;;;;37.55;18.98;;;1.60;99.90;;;;;;5095440;28;20059;-67
2023/01/26 05:17:52;;;;;;;35.65;19.52;;;1.60;99.90;;;;;;5094959;28;20361;-67
2023/01/26 05:20:18;;;;;;;37.13;19.85;;;1.70;99.90;;;;;;5094377;28;20031;-67
2023/01/26 05:22:43;;;;;;;37.40;19.25;;;1.70;99.90;;;;;;5092687;28;20028;-67
2023/01/26 05:25:10;;;;;;;36.17;19.35;;;1.70;99.90;;;;;;5074711;28;20031;-67
2023/01/26 05:27:35;;;;;;;37.97;19.50;;;1.70;99.90;;;;;;5074534;28;20040;-67
2023/01/26 05:30:02;;;;;;;36.40;19.98;;;1.70;99.90;;;;;;5074244;28;20025;-67
2023/01/26 05:32:29;;;;;;;39.47;20.15;;;1.70;99.90;;;;;;5074607;28;20025;-67
2023/01/26 05:34:55;;;;;;;38.22;20.38;;;1.80;99.90;;;;;;5074191;28;20028;-67
2023/01/26 05:37:24;;;;;;;38.95;19.45;;;1.80;99.90;;;;;;5073413;28;20029;-67
2023/01/26 05:39:49;;;;;;;34.28;19.08;;;1.80;99.90;;;;;;5074091;28;20135;-67
2023/01/26 05:42:15;;;;;;;36.60;18.52;;;1.70;99.90;;;;;;5074646;28;20117;-67
2023/01/26 05:44:41;;;;;;;43.70;20.02;;;1.70;99.90;;;;;;5074165;28;20029;-70
2023/01/26 05:47:07;;;;;;;36.88;20.42;;;1.80;99.90;;;;;;5074263;28;20033;-67
2023/01/26 05:49:33;;;;;;;39.17;19.80;;;1.80;99.90;;;;;;5074659;28;20070;-66
2023/01/26 05:51:58;;;;;;;43.58;21.20;;;1.80;99.90;;;;;;5073708;28;20082;-67
2023/01/26 05:54:24;;;;;;;38.50;20.20;;;1.80;99.90;;;;;;5074146;28;20116;-66
2023/01/26 05:56:52;;;;;;;44.38;22.08;;;1.80;99.90;;;;;;5073723;28;20024;-67
2023/01/26 05:59:17;;;;;;;40.35;21.33;;;1.80;99.90;;;;;;5074284;28;20032;-67
2023/01/26 06:01:43;;;;;;;42.33;19.50;;;1.80;99.90;;;;;;5073564;28;20025;-67
2023/01/26 06:04:09;;;;;;;38.10;20.08;;;1.70;99.90;;;;;;5074520;28;20443;-66
2023/01/26 06:06:35;;;;;;;43.50;20.70;;;1.70;99.90;;;;;;5073782;28;20071;-67
2023/01/26 06:09:00;;;;;;;43.28;21.38;;;1.70;99.90;;;;;;5076007;28;20029;-67
2023/01/26 06:11:26;;;;;;;44.00;20.70;;;1.70;99.90;;;;;;5078122;28;20055;-67
2023/01/26 06:13:51;;;;;;;39.53;20.52;;;1.80;99.90;;;;;;5080343;28;20030;-67
2023/01/26 06:16:17;;;;;;;47.80;21.20;;;1.80;99.90;;;;;;5075250;28;20111;-66
2023/01/26 06:18:46;;;;;;;40.90;21.08;;;1.80;99.90;;;;;;5073999;28;20020;-74
2023/01/26 06:21:11;;;;;;;44.78;21.90;;;1.80;99.90;;;;;;5073841;28;20035;-66
2023/01/26 06:23:37;;;;;;;48.92;23.35;;;1.80;99.90;;;;;;5074132;28;20024;-66
2023/01/26 06:26:03;;;;;;;46.95;22.83;;;1.80;99.90;;;;;;5073325;28;20425;-66
2023/01/26 06:28:29;;;;;;;47.70;24.52;;;1.80;99.90;;;;;;5072387;28;20020;-66
2023/01/26 06:31:00;;;;;;;45.35;22.13;;;1.80;99.90;;;;;;5073189;28;20051;-66
2023/01/26 06:33:25;;;;;;;44.22;22.90;;;1.80;99.90;;;;;;5072845;28;20033;-66
2023/01/26 06:35:53;;;;;;;43.90;21.83;;;1.70;99.90;;;;;;5072842;28;20044;-66
2023/01/26 06:38:19;;;;;;;42.70;22.63;;;1.70;99.90;;;;;;5073224;28;20020;-66
2023/01/26 06:40:44;;;;;;;39.35;20.50;;;1.70;99.90;;;;;;5072810;28;20464;-72
2023/01/26 06:43:10;;;;;;;40.65;21.25;;;1.70;99.90;;;;;;5073259;28;20034;-66
2023/01/26 06:45:36;;;;;;;38.85;20.63;;;1.70;99.90;;;;;;5073303;28;20033;-66
2023/01/26 06:48:01;;;;;;;44.03;21.63;;;1.70;99.90;;;;;;5072914;28;20032;-66
2023/01/26 06:50:34;;;;;;;42.20;21.35;;;1.70;99.90;;;;;;5073032;28;20385;-66
2023/01/26 06:53:22;;;;;;;49.30;22.35;;;1.70;99.90;;;;;;5072621;28;20028;-66
2023/01/26 06:55:48;;;;;;;44.63;22.02;;;1.70;99.90;;;;;;5072767;28;20032;-66
2023/01/26 06:58:14;;;;;;;48.30;23.42;;;1.70;99.90;;;;;;5071859;28;20020;-66
2023/01/26 07:00:40;;;;;;;49.40;23.13;;;1.70;99.90;;;;;;5072826;28;20470;-66
2023/01/26 07:03:05;;;;;;;49.90;22.88;;;1.70;99.90;;;;;;5072658;28;20325;-67
2023/01/26 07:05:31;;;;;;;44.10;22.25;;;1.70;99.90;;;;;;5072795;28;20078;-67
2023/01/26 07:08:01;;;;;;;40.63;20.48;;;1.80;99.90;;;;;;5072840;28;20056;-67
2023/01/26 07:10:27;;;;;;;46.90;22.50;;;1.80;99.90;;;;;;5072871;28;20083;-67
2023/01/26 07:12:52;;;;;;;46.00;20.65;;;1.80;99.90;;;;;;5072453;28;20477;-67
2023/01/26 07:15:18;;;;;;;51.53;22.38;;;1.80;99.90;;;;;;5072744;28;20071;-68
2023/01/26 07:17:43;;;;;;;49.70;22.63;;;1.80;99.90;;;;;;5072462;28;20020;-67
2023/01/26 07:20:09;;;;;;;41.92;20.10;;;1.80;99.90;;;;;;5072299;28;20074;-67
2023/01/26 07:22:35;;;;;;;46.95;22.35;;;1.90;99.90;;;;;;5072459;28;20028;-67
2023/01/26 07:25:01;;;;;;;48.92;22.70;;;1.90;99.90;;;;;;5072010;28;20028;-67
2023/01/26 07:27:26;;;;;;;50.17;23.85;;;1.90;99.90;;;;;;5072530;28;20067;-67
2023/01/26 07:29:52;;;;;;;48.65;22.55;;;1.90;99.90;;;;;;5071018;28;20024;-67
2023/01/26 07:32:18;;;;;;;53.83;25.20;;;1.90;99.90;;;;;;5072425;28;20119;-67
2023/01/26 07:34:43;;;;;;;54.45;23.55;;;1.90;99.90;;;;;;5072886;28;20074;-67
2023/01/26 07:37:09;;;;;;;54.05;22.88;;;1.90;99.90;;;;;;5072210;28;20166;-66
2023/01/26 07:39:35;;;;;;;50.80;22.80;;;1.90;99.90;;;;;;5072484;28;20102;-66
2023/01/26 07:42:00;;;;;;;56.03;25.08;;;1.90;99.90;;;;;;5071908;28;20524;-68
2023/01/26 07:44:26;;;;;;;59.03;24.05;;;1.90;99.90;;;;;;5071919;28;20056;-67
2023/01/26 07:46:53;;;;;;;56.55;23.65;;;1.90;99.90;;;;;;5072039;28;20033;-66
2023/01/26 07:49:18;;;;;;;55.10;22.75;;;1.90;99.90;;;;;;5072170;28;20031;-67
2023/01/26 07:51:44;;;;;;;59.50;24.13;;;1.90;99.90;;;;;;5072141;28;20029;-67
2023/01/26 07:54:13;;;;;;;67.65;25.42;;;1.90;99.90;;;;;;5072481;28;20038;-66
2023/01/26 07:56:39;;;;;;;57.80;23.42;;;1.90;99.90;;;;;;5072709;28;20461;-65
2023/01/26 07:59:05;;;;;;;50.67;21.90;;;1.90;99.90;;;;;;5072494;28;20063;-68
2023/01/26 08:01:30;;;;;;;62.53;24.35;;;1.90;99.90;;;;;;5072972;28;20016;-65
2023/01/26 08:03:56;;;;;;;59.35;22.45;;;1.90;99.90;;;;;;5070718;28;20448;-67
2023/01/26 08:06:23;;;;;;;64.55;23.90;;;1.90;99.90;;;;;;5074581;28;20051;-67
2023/01/26 08:08:50;;;;;;;57.55;23.02;;;1.90;99.90;;;;;;5072365;28;20450;-67
2023/01/26 08:11:18;;;;;;;64.85;24.42;;;1.90;99.90;;;;;;5072158;28;20082;-67
2023/01/26 08:13:43;;;;;;;71.47;24.75;;;1.90;99.90;;;;;;5072279;28;20032;-67
2023/01/26 08:16:13;;;;;;;66.05;24.70;;;1.90;99.90;;;;;;5072296;28;20032;-67
2023/01/26 08:18:40;;;;;;;62.95;24.48;;;1.90;99.90;;;;;;5072167;28;20025;-67
2023/01/26 08:21:06;;;;;;;75.43;28.13;;;1.90;99.90;;;;;;5071692;28;20025;-67
2023/01/26 08:23:32;;;;;;;65.50;26.52;;;1.90;99.90;;;;;;5072111;28;20100;-66
2023/01/26 08:26:02;;;;;;;72.55;26.60;;;1.90;99.90;;;;;;5071435;28;20040;-67
2023/01/26 08:28:28;;;;;;;65.00;23.73;;;1.90;99.90;;;;;;5072370;28;20376;-67
2023/01/26 08:30:54;;;;;;;70.13;27.08;;;2.00;99.90;;;;;;5071383;28;20028;-65
2023/01/26 08:33:21;;;;;;;78.72;31.65;;;2.00;99.90;;;;;;5072121;28;20025;-66
2023/01/26 08:35:46;;;;;;;68.38;26.27;;;2.00;99.90;;;;;;5071795;28;20089;-67
2023/01/26 08:38:12;;;;;;;67.55;25.25;;;2.00;99.90;;;;;;5071711;28;20032;-67
2023/01/26 08:40:38;;;;;;;66.57;25.90;;;2.10;99.90;;;;;;5070528;28;20114;-65
2023/01/26 08:43:03;;;;;;;64.78;24.65;;;2.10;99.90;;;;;;5071680;28;20104;-66
2023/01/26 08:45:30;;;;;;;64.95;26.02;;;2.10;99.90;;;;;;5071964;28;20032;-65
2023/01/26 08:47:56;;;;;;;50.97;22.30;;;2.10;99.90;;;;;;5071521;28;20116;-65
2023/01/26 08:50:22;;;;;;;59.58;24.48;;;2.10;99.90;;;;;;5071813;28;20116;-66
2023/01/26 08:52:48;;;;;;;57.78;24.55;;;2.10;99.90;;;;;;5072279;28;20377;-66
2023/01/26 08:55:13;;;;;;;59.22;25.10;;;2.10;99.90;;;;;;5072253;28;20441;-66
2023/01/26 08:57:40;;;;;;;63.05;24.40;;;2.10;99.90;;;;;;5075649;28;20028;-66
2023/01/26 09:00:06;;;;;;;56.72;24.33;;;2.20;99.90;;;;;;5074870;28;20036;-66
2023/01/26 09:02:32;;;;;;;64.95;25.75;;;2.20;99.90;;;;;;5075279;28;20035;-66
2023/01/26 09:04:58;;;;;;;65.28;26.77;;;2.20;99.90;;;;;;5074978;28;20029;-67
2023/01/26 09:07:23;;;;;;;59.70;24.35;;;2.20;99.90;;;;;;5074924;28;20119;-66
2023/01/26 09:09:49;;;;;;;61.53;24.73;;;2.20;99.90;;;;;;5075304;28;20475;-66
2023/01/26 09:12:14;;;;;;;64.85;26.17;;;2.20;99.90;;;;;;5074892;28;20024;-65
2023/01/26 09:14:40;;;;;;;62.55;26.20;;;2.20;99.90;;;;;;5075199;28;20021;-66
2023/01/26 09:17:06;;;;;;;64.35;25.80;;;2.20;99.90;;;;;;5074511;28;20033;-67
2023/01/26 09:19:32;;;;;;;66.30;26.42;;;2.20;99.90;;;;;;5073937;28;20033;-67
2023/01/26 09:21:57;;;;;;;70.75;27.45;;;2.20;99.90;;;;;;5075020;28;20036;-68
2023/01/26 09:24:23;;;;;;;66.18;26.90;;;2.20;99.90;;;;;;5074833;28;20024;-67
2023/01/26 09:26:49;;;;;;;66.68;26.77;;;2.10;99.90;;;;;;5074802;28;20038;-66
2023/01/26 09:29:15;;;;;;;67.28;26.08;;;2.10;99.90;;;;;;5074304;28;20067;-67
2023/01/26 09:31:41;;;;;;;81.47;27.35;;;2.10;99.90;;;;;;5074842;28;20028;-67
2023/01/26 09:34:07;;;;;;;64.07;25.55;;;2.10;99.90;;;;;;5074512;28;20033;-66
2023/01/26 09:36:33;;;;;;;72.50;26.58;;;2.10;99.90;;;;;;5074797;28;20028;-66
2023/01/26 09:38:59;;;;;;;68.13;26.25;;;2.10;99.90;;;;;;5077338;28;20086;-70
2023/01/26 09:41:27;;;;;;;66.82;26.30;;;2.10;99.90;;;;;;5081866;28;20052;-66
2023/01/26 09:43:58;;;;;;;61.45;22.95;;;2.10;99.90;;;;;;5077560;28;20029;-67
2023/01/26 09:46:26;;;;;;;;;;;2.10;99.90;;;;;;5075488;28;20043;-67
2023/01/26 09:49:10;;;;;;;54.10;22.60;;;2.10;99.90;;;;;;5075479;28;19990;-66
2023/01/26 09:51:51;;;;;;;58.33;23.30;;;2.10;99.90;;;;;;5074885;28;20047;-66
2023/01/26 09:54:31;;;;;;;60.13;25.05;;;2.10;99.90;;;;;;5074105;28;20028;-67
2023/01/26 09:57:10;;;;;;;69.93;26.63;;;2.10;99.90;;;;;;5074556;28;20033;-67
2023/01/26 10:00:19;;;;;;;69.10;26.65;;;2.10;99.90;;;;;;5074277;28;20151;-67
2023/01/26 10:03:10;;;;;;;70.88;26.30;;;2.10;99.90;;;;;;4992483;28;20550;-66
2023/01/26 10:06:00;;;;;;;59.75;24.65;;;2.10;99.90;;;;;;5007146;28;20471;-66
2023/01/26 10:08:26;;;;;;;71.70;27.15;;;2.20;99.90;;;;;;5012165;28;20042;-67
2023/01/26 10:11:41;;;;;;;60.53;25.33;;;2.20;99.90;;;;;;5012073;28;20045;-67
2023/01/26 10:14:17;;;;;;;78.43;28.20;;;2.20;99.90;;;;;;4999093;28;20078;-66
2023/01/26 10:16:46;;;;;;;67.70;26.50;;;2.20;99.90;;;;;;5012174;28;20112;-67
2023/01/26 10:19:28;;;;;;;68.38;26.52;;;2.30;99.90;;;;;;5011634;28;20029;-66
2023/01/26 10:21:58;;;;;;;62.10;26.33;;;2.30;99.90;;;;;;5011892;28;20161;-66
2023/01/26 10:24:24;;;;;;;62.72;25.50;;;2.30;99.90;;;;;;5011505;28;20471;-66
2023/01/26 10:26:55;;;;;;;60.45;25.73;;;2.30;99.90;;;;;;5011535;28;20096;-66
2023/01/26 10:29:21;;;;;;;57.97;25.10;;;2.30;99.90;;;;;;5011361;28;20124;-66
2023/01/26 10:31:47;;;;;;;48.17;22.92;;;2.30;99.90;;;;;;5011709;28;20121;-68
2023/01/26 10:34:16;;;;;;;65.25;27.13;;;2.30;99.90;;;;;;5079137;28;20486;-67
2023/01/26 10:36:44;;;;;;;61.17;25.00;;;2.30;99.90;;;;;;5093535;28;20036;-67
2023/01/26 10:39:13;;;;;;;56.33;24.67;;;2.30;99.90;;;;;;5093375;28;20024;-67
2023/01/26 10:41:39;;;;;;;60.92;25.65;;;2.40;99.90;;;;;;5094014;28;20105;-67
2023/01/26 10:44:33;;;;;;;56.42;23.88;;;2.40;99.90;;;;;;5093077;28;20028;-67
2023/01/26 10:47:20;;;;;;;56.92;25.23;;;2.40;99.90;;;;;;5093559;28;20419;-66
2023/01/26 10:49:45;;;;;;;57.60;23.65;;;2.40;99.90;;;;;;5093398;28;20063;-67
2023/01/26 10:52:17;;;;;;;53.30;22.73;;;2.40;99.90;;;;;;5093280;28;20051;-67
2023/01/26 10:54:44;;;;;;;54.35;23.80;;;2.40;99.90;;;;;;5093553;28;20024;-67
2023/01/26 10:57:32;;;;;;;58.00;23.40;;;2.40;99.90;;;;;;5094805;28;20027;-67
2023/01/26 11:00:07;;;;;;;55.95;23.42;;;2.40;99.90;;;;;;5094880;28;20065;-66
2023/01/26 11:02:34;;;;;;;55.05;23.95;;;2.40;99.90;;;;;;5092995;28;20085;-66
2023/01/26 11:05:06;;;;;;;60.00;24.80;;;2.40;99.90;;;;;;5093357;28;20465;-66
2023/01/26 11:07:40;;;;;;;55.33;24.17;;;2.40;99.90;;;;;;5093476;28;20043;-66
2023/01/26 11:10:18;;;;;;;55.20;24.20;;;2.50;99.90;;;;;;5092628;28;20035;-66
2023/01/26 11:12:43;;;;;;;50.28;22.55;;;2.50;99.90;;;;;;5093319;28;20028;-67
2023/01/26 11:15:16;;;;;;;50.78;22.70;;;2.50;99.90;;;;;;5080064;28;20047;-67
2023/01/26 11:18:03;;;;;;;57.33;24.42;;;2.50;99.90;;;;;;5072296;28;20024;-67
2023/01/26 11:20:50;;;;;;;51.40;24.17;;;2.60;99.90;;;;;;5072818;28;20029;-66
2023/01/26 11:23:34;;;;;;;52.95;23.35;;;2.60;99.90;;;;;;5072466;28;20110;-66
2023/01/26 11:26:28;;;;;;;54.28;23.88;;;2.60;99.90;;;;;;5072550;28;20058;-66
2023/01/26 11:29:00;;;;;;;52.17;24.30;;;2.60;99.90;;;;;;5072738;28;20027;-66
2023/01/26 11:31:29;;;;;;;59.63;24.67;;;2.60;99.90;;;;;;5072276;28;20391;-66
2023/01/26 11:34:00;;;;;;;51.58;24.38;;;2.70;99.90;;;;;;5072656;28;20451;-66
2023/01/26 11:36:50;;;;;;;54.47;25.90;;;2.70;99.90;;;;;;5072274;28;20126;-66
2023/01/26 11:39:27;;;;;;;58.75;24.23;;;2.70;99.90;;;;;;5071935;28;20028;-68
2023/01/26 11:42:01;;;;;;;58.88;24.20;;;2.70;99.90;;;;;;5073023;28;20074;-66
2023/01/26 11:44:51;;;;;;;54.30;24.35;;;2.70;99.90;;;;;;5072283;28;20029;-65
2023/01/26 11:47:23;;;;;;;59.83;24.83;;;2.70;99.90;;;;;;5072126;28;20028;-67
2023/01/26 11:50:20;;;;;;;59.13;24.27;;;2.70;99.90;;;;;;5072436;28;20029;-67
2023/01/26 11:53:00;;;;;;;54.30;23.77;;;2.70;99.90;;;;;;5072471;28;20158;-67
2023/01/26 11:55:35;;;;;;;47.50;22.38;;;2.70;99.90;;;;;;5071717;28;20385;-67
2023/01/26 11:58:29;;;;;;;52.78;25.10;;;2.70;99.90;;;;;;5073826;28;20469;-66
2023/01/26 12:00:59;;;;;;;60.42;26.27;;;2.70;99.90;;;;;;5072178;28;20043;-67
2023/01/26 12:03:42;;;;;;;57.80;25.95;;;2.80;99.90;;;;;;5072020;28;20086;-66
2023/01/26 12:06:21;;;;;;;61.35;26.75;;;2.80;99.90;;;;;;5071753;28;20029;-74
2023/01/26 12:09:01;;;;;;;67.53;28.05;;;2.80;99.90;;;;;;5073531;28;20075;-67
2023/01/26 12:11:39;;;;;;;67.20;28.13;;;2.80;99.90;;;;;;5071930;28;20107;-67
2023/01/26 12:14:25;;;;;;;60.65;26.35;;;2.80;99.90;;;;;;5072088;28;20381;-67
2023/01/26 12:17:06;;;;;;;57.28;25.80;;;2.80;99.90;;;;;;5072317;28;20033;-67
2023/01/26 12:19:34;;;;;;;61.10;26.58;;;2.80;99.90;;;;;;5071996;28;20086;-67
2023/01/26 12:22:10;;;;;;;61.53;26.02;;;2.90;99.90;;;;;;5072235;28;20020;-67
2023/01/26 12:24:52;;;;;;;57.60;25.50;;;2.90;99.90;;;;;;5071728;28;20021;-66
2023/01/26 12:27:42;;;;;;;57.40;25.80;;;2.90;99.90;;;;;;5071590;28;20060;-66
2023/01/26 12:30:32;;;;;;;61.00;26.63;;;2.90;99.90;;;;;;5071869;28;20047;-66
2023/01/26 12:32:58;;;;;;;59.50;26.20;;;2.90;99.90;;;;;;5075766;28;20032;-66
2023/01/26 12:35:36;;;;;;;60.80;26.98;;;3.00;99.90;;;;;;5075503;28;20025;-66
2023/01/26 12:38:09;;;;;;;58.78;25.02;;;3.00;99.90;;;;;;5075949;28;20021;-65
2023/01/26 12:41:15;;;;;;;61.05;25.20;;;3.00;99.90;;;;;;5073817;28;20052;-67
2023/01/26 12:43:56;;;;;;;53.08;24.83;;;2.90;99.90;;;;;;5075619;28;20103;-67
2023/01/26 12:46:26;;;;;;;58.72;24.88;;;2.90;99.90;;;;;;5075332;28;20377;-67
2023/01/26 12:49:01;;;;;;;57.10;26.42;;;2.90;99.90;;;;;;5075587;28;20117;-66
2023/01/26 12:51:36;;;;;;;60.67;24.65;;;2.90;99.90;;;;;;5075320;28;20063;-66
2023/01/26 12:54:14;;;;;;;67.28;26.67;;;2.90;99.90;;;;;;5075360;28;20044;-66
2023/01/26 12:56:45;;;;;;;60.47;26.30;;;2.90;99.90;;;;;;5075595;28;20033;-66
2023/01/26 12:59:27;;;;;;;59.85;26.80;;;2.90;99.90;;;;;;5075458;28;20109;-67
2023/01/26 13:01:53;;;;;;;51.33;24.33;;;2.90;99.90;;;;;;5075399;28;20115;-67
2023/01/26 13:04:19;;;;;;;57.17;24.50;;;2.90;99.90;;;;;;5074573;28;20060;-69
2023/01/26 13:07:02;;;;;;;65.80;28.23;;;2.90;99.90;;;;;;5080494;28;20041;-67
2023/01/26 13:09:27;;;;;;;61.65;27.25;;;2.90;99.90;;;;;;5079357;28;20527;-67
2023/01/26 13:11:59;;;;;;;65.22;27.60;;;2.90;99.90;;;;;;5075171;28;20020;-67
2023/01/26 13:14:33;;;;;;;69.30;27.80;;;2.90;99.90;;;;;;5074970;28;20086;-67
2023/01/26 13:17:13;;;;;;;62.97;27.55;;;2.90;99.90;;;;;;5075286;28;20024;-65
2023/01/26 13:19:42;;;;;;;57.63;26.50;;;2.90;99.90;;;;;;5075075;28;20344;-67
2023/01/26 13:22:17;;;;;;;58.30;27.02;;;2.80;99.90;;;;;;5075140;28;20029;-67
2023/01/26 13:24:47;;;;;;;60.20;28.02;;;2.80;99.90;;;;;;5074653;28;20060;-67
2023/01/26 13:27:38;;;;;;;65.50;28.98;;;2.80;99.90;;;;;;5074948;28;20119;-67
2023/01/26 13:30:29;;;;;;;59.80;27.83;;;2.80;99.90;;;;;;5074609;28;20032;-65
2023/01/26 13:33:09;;;;;;;61.22;27.42;;;2.80;99.90;;;;;;5066564;28;20040;-67
2023/01/26 13:35:35;;;;;;;62.03;28.85;;;2.80;99.90;;;;;;5074486;28;20396;-67